PWSweather.com
Personal Weather Stations
Station Observations
ESTFIQ
Santa Fe, Santa FeAR 3000

Santa FeSanta FeAR 3000

Lat: -31.637, Lon: -60.708

Elevation: 69

Station Type: WH-1081

http://galileo4.unl.edu.ar/estacion

Latest ConditionsUpdated 5:05:01 AM GMT-03:57 Sunday, Jun 16, 2019
Currently Today's Max Today's Min Today's Average
Temperature 53.1°F11.7°C 57.9°F14.4°C 52.9°F11.6°C 54.9°F12.7°C
Dew Point 52.5°F11.4°C 56.8°F13.8°C 52.3°F11.3°C 54.1°F12.3°C
Winds 6.9 mph S11.1 kmh S 15.2 mph -24.5 kmh - - 6.2 mph 10.0 kmh
Wind Gusts 17.4 mph28.0 kmh 19.7 mph31.7 kmh - -
Humidity 98% 98% 96% 97%
Pressure 29.89 in1012.2 mb 29.91 in1012.9 mb 29.86 in1011.2 mb -
Precipitation - 0.01 in0.3 mm - -
Hour Temp Dew Point Humidity Winds Wind Gusts Pressure Precip Precip Rate Daily Precip Total
05:05 AM 53.1°F11.7°C 52.5°F11.4°C 98% 6.9 mph S11.1 kmh S 17.4 mph28.0 kmh 29.89 in1012.2 mb 0.00 in0.0 mm 0.00 in0.0 mm 0.01 in0.3 mm
05:00 AM 53.1°F11.7°C 52.5°F11.4°C 98% 9.8 mph S15.8 kmh S 17.4 mph28.0 kmh 29.89 in1012.2 mb 0.00 in0.0 mm 0.00 in0.0 mm 0.01 in0.3 mm
04:55 AM 52.9°F11.6°C 52.3°F11.3°C 98% 9.8 mph SSW15.8 kmh SSW 15.2 mph24.5 kmh 29.89 in1012.2 mb 0.00 in0.0 mm 0.00 in0.0 mm 0.01 in0.3 mm
04:50 AM 53.1°F11.7°C 52.5°F11.4°C 98% 3.8 mph SW6.1 kmh SW 14.5 mph23.3 kmh 29.89 in1012.2 mb 0.00 in0.0 mm 0.00 in0.0 mm 0.01 in0.3 mm
04:45 AM 52.9°F11.6°C 52.3°F11.3°C 98% 6.9 mph SSW11.1 kmh SSW 18.3 mph29.5 kmh 29.90 in1012.5 mb 0.00 in0.0 mm 0.00 in0.0 mm 0.01 in0.3 mm
04:40 AM 52.9°F11.6°C 52.3°F11.3°C 98% 8.3 mph S13.4 kmh S 19.0 mph30.6 kmh 29.91 in1012.9 mb 0.00 in0.0 mm 0.00 in0.0 mm 0.01 in0.3 mm
04:35 AM 52.9°F11.6°C 52.3°F11.3°C 98% 6.0 mph S9.7 kmh S 19.7 mph31.7 kmh 29.90 in1012.5 mb 0.00 in0.0 mm 0.00 in0.0 mm 0.01 in0.3 mm
04:30 AM 52.9°F11.6°C 52.3°F11.3°C 98% 6.0 mph S9.7 kmh S 19.7 mph31.7 kmh 29.91 in1012.9 mb 0.00 in0.0 mm 0.00 in0.0 mm 0.01 in0.3 mm
04:25 AM 52.9°F11.6°C 52.3°F11.3°C 98% 8.3 mph S13.4 kmh S 18.3 mph29.5 kmh 29.91 in1012.9 mb 0.00 in0.0 mm 0.00 in0.0 mm 0.01 in0.3 mm
04:20 AM 52.9°F11.6°C 52.3°F11.3°C 98% 11.4 mph SSW18.3 kmh SSW 18.3 mph29.5 kmh 29.90 in1012.5 mb 0.00 in0.0 mm 0.00 in0.0 mm 0.01 in0.3 mm
04:15 AM 52.9°F11.6°C 52.3°F11.3°C 98% 6.0 mph S9.7 kmh S 18.3 mph29.5 kmh 29.91 in1012.9 mb 0.00 in0.0 mm 0.00 in0.0 mm 0.01 in0.3 mm
04:10 AM 53.1°F11.7°C 52.5°F11.4°C 98% 9.2 mph SW14.8 kmh SW 17.4 mph28.0 kmh 29.91 in1012.9 mb 0.00 in0.0 mm 0.00 in0.0 mm 0.01 in0.3 mm
04:05 AM 52.9°F11.6°C 52.3°F11.3°C 98% 9.8 mph SSW15.8 kmh SSW 17.4 mph28.0 kmh 29.90 in1012.5 mb 0.00 in0.0 mm 0.00 in0.0 mm 0.01 in0.3 mm
04:00 AM 53.1°F11.7°C 52.5°F11.4°C 98% 9.2 mph S14.8 kmh S 15.9 mph25.6 kmh 29.89 in1012.2 mb 0.00 in0.0 mm 0.00 in0.0 mm 0.01 in0.3 mm
03:55 AM 53.1°F11.7°C 52.5°F11.4°C 98% 4.5 mph S7.2 kmh S 12.1 mph19.5 kmh 29.90 in1012.5 mb 0.00 in0.0 mm 0.00 in0.0 mm 0.01 in0.3 mm
03:50 AM 53.1°F11.7°C 52.5°F11.4°C 98% 5.4 mph S8.7 kmh S 12.1 mph19.5 kmh 29.91 in1012.9 mb 0.00 in0.0 mm 0.00 in0.0 mm 0.01 in0.3 mm
03:45 AM 53.1°F11.7°C 52.5°F11.4°C 98% 5.4 mph S8.7 kmh S 17.4 mph28.0 kmh 29.90 in1012.5 mb 0.00 in0.0 mm 0.00 in0.0 mm 0.01 in0.3 mm
03:40 AM 53.1°F11.7°C 52.5°F11.4°C 98% 7.6 mph S12.2 kmh S 18.3 mph29.5 kmh 29.91 in1012.9 mb 0.00 in0.0 mm 0.00 in0.0 mm 0.01 in0.3 mm
03:35 AM 53.1°F11.7°C 52.5°F11.4°C 98% 9.2 mph S14.8 kmh S 19.0 mph30.6 kmh 29.89 in1012.2 mb 0.00 in0.0 mm 0.00 in0.0 mm 0.01 in0.3 mm
03:30 AM 53.2°F11.8°C 52.7°F11.5°C 98% 9.8 mph SSW15.8 kmh SSW 19.0 mph30.6 kmh 29.90 in1012.5 mb 0.00 in0.0 mm 0.00 in0.0 mm 0.01 in0.3 mm
03:25 AM 53.4°F11.9°C 52.9°F11.6°C 98% 8.3 mph S13.4 kmh S 17.4 mph28.0 kmh 29.90 in1012.5 mb 0.00 in0.0 mm 0.00 in0.0 mm 0.01 in0.3 mm
03:20 AM 53.6°F12.0°C 52.8°F11.6°C 97% 4.5 mph S7.2 kmh S 15.2 mph24.5 kmh 29.90 in1012.5 mb 0.00 in0.0 mm 0.00 in0.0 mm 0.01 in0.3 mm
03:15 AM 53.6°F12.0°C 52.8°F11.6°C 97% 4.5 mph SSW7.2 kmh SSW 15.2 mph24.5 kmh 29.90 in1012.5 mb 0.00 in0.0 mm 0.00 in0.0 mm 0.01 in0.3 mm
03:10 AM 53.6°F12.0°C 52.8°F11.6°C 97% 4.5 mph SW7.2 kmh SW 17.4 mph28.0 kmh 29.91 in1012.9 mb 0.00 in0.0 mm 0.00 in0.0 mm 0.01 in0.3 mm
03:05 AM 53.8°F12.1°C 53.0°F11.7°C 97% 6.9 mph S11.1 kmh S 18.3 mph29.5 kmh 29.90 in1012.5 mb 0.00 in0.0 mm 0.00 in0.0 mm 0.01 in0.3 mm
03:00 AM 53.8°F12.1°C 53.0°F11.7°C 97% 10.7 mph S17.2 kmh S 18.3 mph29.5 kmh 29.90 in1012.5 mb 0.00 in0.0 mm 0.00 in0.0 mm 0.01 in0.3 mm
02:55 AM 54.0°F12.2°C 53.1°F11.7°C 97% 15.2 mph SSW24.5 kmh SSW 17.4 mph28.0 kmh 29.90 in1012.5 mb 0.00 in0.0 mm 0.00 in0.0 mm 0.01 in0.3 mm
02:50 AM 54.1°F12.3°C 53.3°F11.8°C 97% 11.4 mph S18.3 kmh S 15.2 mph24.5 kmh 29.90 in1012.5 mb 0.00 in0.0 mm 0.00 in0.0 mm 0.01 in0.3 mm
02:45 AM 54.1°F12.3°C 53.3°F11.8°C 97% 5.4 mph SSE8.7 kmh SSE 15.2 mph24.5 kmh 29.90 in1012.5 mb 0.00 in0.0 mm 0.00 in0.0 mm 0.01 in0.3 mm
02:40 AM 54.1°F12.3°C 53.3°F11.8°C 97% 9.2 mph S14.8 kmh S 17.4 mph28.0 kmh 29.90 in1012.5 mb 0.00 in0.0 mm 0.00 in0.0 mm 0.01 in0.3 mm
02:35 AM 54.1°F12.3°C 53.3°F11.8°C 97% 9.8 mph S15.8 kmh S 17.4 mph28.0 kmh 29.90 in1012.5 mb 0.00 in0.0 mm 0.00 in0.0 mm 0.01 in0.3 mm
02:30 AM 54.5°F12.5°C 53.7°F12.1°C 97% 7.6 mph SSW12.2 kmh SSW 15.9 mph25.6 kmh 29.90 in1012.5 mb 0.00 in0.0 mm 0.00 in0.0 mm 0.01 in0.3 mm
02:25 AM 54.7°F12.6°C 53.9°F12.2°C 97% 7.6 mph SW12.2 kmh SW 12.1 mph19.5 kmh 29.91 in1012.9 mb 0.00 in0.0 mm 0.00 in0.0 mm 0.01 in0.3 mm
02:20 AM 55.2°F12.9°C 54.4°F12.4°C 97% 9.2 mph SSW14.8 kmh SSW 13.0 mph20.9 kmh 29.91 in1012.9 mb 0.00 in0.0 mm 0.00 in0.0 mm 0.01 in0.3 mm
02:15 AM 55.4°F13.0°C 54.9°F12.7°C 98% 2.2 mph SSW3.5 kmh SSW 13.0 mph20.9 kmh 29.91 in1012.9 mb 0.00 in0.0 mm 0.00 in0.0 mm 0.01 in0.3 mm
02:10 AM 55.4°F13.0°C 54.6°F12.6°C 97% 6.9 mph S11.1 kmh S 12.1 mph19.5 kmh 29.90 in1012.5 mb 0.00 in0.0 mm 0.00 in0.0 mm 0.01 in0.3 mm
02:05 AM 55.6°F13.1°C 54.8°F12.7°C 97% 6.0 mph S9.7 kmh S 12.1 mph19.5 kmh 29.90 in1012.5 mb 0.00 in0.0 mm 0.00 in0.0 mm 0.01 in0.3 mm
02:00 AM 55.6°F13.1°C 54.8°F12.7°C 97% 7.6 mph SSE12.2 kmh SSE 12.1 mph19.5 kmh 29.89 in1012.2 mb 0.00 in0.0 mm 0.00 in0.0 mm 0.01 in0.3 mm
01:55 AM 55.6°F13.1°C 54.8°F12.7°C 97% 9.2 mph S14.8 kmh S 16.8 mph27.0 kmh 29.89 in1012.2 mb 0.01 in0.3 mm 0.00 in0.0 mm 0.01 in0.3 mm
01:50 AM 55.6°F13.1°C 54.8°F12.7°C 97% 3.8 mph S6.1 kmh S 16.8 mph27.0 kmh 29.89 in1012.2 mb 0.01 in0.3 mm 0.00 in0.0 mm 0.01 in0.3 mm
01:45 AM 55.8°F13.2°C 54.9°F12.7°C 97% 12.1 mph S19.5 kmh S 16.8 mph27.0 kmh 29.89 in1012.2 mb 0.01 in0.3 mm 0.00 in0.0 mm 0.01 in0.3 mm
01:40 AM 55.8°F13.2°C 54.9°F12.7°C 97% 3.8 mph S6.1 kmh S 12.1 mph19.5 kmh 29.88 in1011.9 mb 0.01 in0.3 mm 0.00 in0.0 mm 0.01 in0.3 mm
01:35 AM 55.8°F13.2°C 54.9°F12.7°C 97% 3.1 mph SW5.0 kmh SW 11.4 mph18.3 kmh 29.89 in1012.2 mb 0.01 in0.3 mm 0.00 in0.0 mm 0.01 in0.3 mm
01:30 AM 55.8°F13.2°C 54.9°F12.7°C 97% 6.9 mph SW11.1 kmh SW 11.4 mph18.3 kmh 29.88 in1011.9 mb 0.01 in0.3 mm 0.00 in0.0 mm 0.01 in0.3 mm
01:25 AM 55.9°F13.3°C 55.1°F12.8°C 97% 3.1 mph S5.0 kmh S 10.7 mph17.2 kmh 29.88 in1011.9 mb 0.01 in0.3 mm 0.00 in0.0 mm 0.01 in0.3 mm
01:20 AM 55.9°F13.3°C 55.1°F12.8°C 97% 2.2 mph S3.5 kmh S 12.1 mph19.5 kmh 29.88 in1011.9 mb 0.01 in0.3 mm 0.00 in0.0 mm 0.01 in0.3 mm
01:15 AM 55.9°F13.3°C 55.1°F12.8°C 97% 6.9 mph S11.1 kmh S 14.5 mph23.3 kmh 29.87 in1011.5 mb 0.01 in0.3 mm 0.00 in0.0 mm 0.01 in0.3 mm
01:10 AM 56.3°F13.5°C 55.5°F13.1°C 97% 6.9 mph S11.1 kmh S 14.5 mph23.3 kmh 29.86 in1011.2 mb 0.01 in0.3 mm 0.00 in0.0 mm 0.01 in0.3 mm
01:05 AM 56.5°F13.6°C 55.6°F13.1°C 97% 3.8 mph SW6.1 kmh SW 10.7 mph17.2 kmh 29.87 in1011.5 mb 0.01 in0.3 mm 0.00 in0.0 mm 0.01 in0.3 mm
01:00 AM 57.0°F13.9°C 56.2°F13.4°C 97% 4.5 mph WSW7.2 kmh WSW 9.2 mph14.8 kmh 29.87 in1011.5 mb 0.01 in0.3 mm 0.01 in0.3 mm 0.01 in0.3 mm
12:55 AM 57.9°F14.4°C 56.8°F13.8°C 96% 2.2 mph W3.5 kmh W 7.6 mph12.2 kmh 29.89 in1012.2 mb 0.00 in0.0 mm 0.00 in0.0 mm 0.06 in1.5 mm
12:50 AM 57.9°F14.4°C 56.8°F13.8°C 96% 1.6 mph SSW2.6 kmh SSW 7.6 mph12.2 kmh 29.89 in1012.2 mb 0.00 in0.0 mm 0.00 in0.0 mm 0.06 in1.5 mm
12:45 AM 57.9°F14.4°C 56.8°F13.8°C 96% 2.2 mph S3.5 kmh S 6.0 mph9.7 kmh 29.89 in1012.2 mb 0.00 in0.0 mm 0.00 in0.0 mm 0.06 in1.5 mm
12:40 AM 57.9°F14.4°C 56.8°F13.8°C 96% 3.8 mph S6.1 kmh S 6.0 mph9.7 kmh 29.88 in1011.9 mb 0.00 in0.0 mm 0.00 in0.0 mm 0.06 in1.5 mm
12:35 AM 57.9°F14.4°C 56.8°F13.8°C 96% 2.2 mph S3.5 kmh S 6.9 mph11.1 kmh 29.88 in1011.9 mb 0.00 in0.0 mm 0.00 in0.0 mm 0.06 in1.5 mm
12:30 AM 57.9°F14.4°C 56.8°F13.8°C 96% 4.5 mph S7.2 kmh S 6.9 mph11.1 kmh 29.89 in1012.2 mb 0.00 in0.0 mm 0.00 in0.0 mm 0.06 in1.5 mm
12:25 AM 57.9°F14.4°C 56.8°F13.8°C 96% 1.6 mph S2.6 kmh S 6.0 mph9.7 kmh 29.89 in1012.2 mb 0.00 in0.0 mm 0.00 in0.0 mm 0.06 in1.5 mm
12:20 AM 57.9°F14.4°C 56.8°F13.8°C 96% 0.7 mph S1.1 kmh S 5.4 mph8.7 kmh 29.89 in1012.2 mb 0.01 in0.3 mm 0.00 in0.0 mm 0.06 in1.5 mm
12:15 AM 57.9°F14.4°C 56.8°F13.8°C 96% 1.6 mph SSE2.6 kmh SSE 7.6 mph12.2 kmh 29.89 in1012.2 mb 0.01 in0.3 mm 0.00 in0.0 mm 0.06 in1.5 mm
12:10 AM 57.9°F14.4°C 56.8°F13.8°C 96% 1.6 mph SE2.6 kmh SE 7.6 mph12.2 kmh 29.89 in1012.2 mb 0.02 in0.5 mm 0.00 in0.0 mm 0.06 in1.5 mm
12:05 AM 57.9°F14.4°C 56.8°F13.8°C 96% 1.6 mph SE2.6 kmh SE 4.5 mph7.2 kmh 29.89 in1012.2 mb 0.02 in0.5 mm 0.00 in0.0 mm 0.06 in1.5 mm
12:00 AM 57.9°F14.4°C 56.8°F13.8°C 96% 3.1 mph SSE5.0 kmh SSE 4.5 mph7.2 kmh 29.89 in1012.2 mb 0.06 in1.5 mm 0.00 in0.0 mm 0.06 in1.5 mm